Jackass Flats, Nevada
Current Conditions -  °F | °C
As of 7:52 PM on Tuesday 27 Jan 2015 (Local Time) from KDRA Reporting Station
Clear Clear  
Wind Chill: 47°   Ceiling: Unl
Heat Index: 47°   Visibility: 10mi
Dew Point: 43°   Wind: 3mph
Humidity: 86%   Direction: 110°ESE
Pressure: 30.22"   Gusts: NA
Location:  36.6649°N, 115.998°W
Report Text: KDRA 280352Z AUTO 11003KT 10SM CLR 08/06 A3022 RMK AO2 SLP220 T00830061
Loading
Personal Weather Stations






























Interactive Weather Map New forecast layout! Learn more

10-Day Weather Forecast

Advertisements
Track Severe Weather on mobile